createdAt,value
2024-02-08T00:00:16.516Z,94092.78
2024-02-08T00:02:18.513Z,94094.59
2024-02-08T00:04:20.438Z,94100.78
2024-02-08T00:06:22.660Z,94094.22
2024-02-08T00:08:24.608Z,94101.09
2024-02-08T00:10:26.600Z,94096.16
2024-02-08T00:12:28.633Z,94089.28
2024-02-08T00:14:31.867Z,94092.84
2024-02-08T00:16:33.799Z,94093.91
2024-02-08T00:18:37.486Z,94102.75
2024-02-08T00:20:39.403Z,94098.16
2024-02-08T00:22:43.338Z,94096.59
2024-02-08T00:24:44.971Z,94091.84
2024-02-08T00:26:46.764Z,94096.53
2024-02-08T00:28:48.999Z,94096.97
2024-02-08T00:30:50.930Z,94098.00
2024-02-08T00:32:52.927Z,94090.47
2024-02-08T00:34:54.941Z,94081.53
2024-02-08T00:36:56.969Z,94083.66
2024-02-08T00:38:58.861Z,94083.34
2024-02-08T00:41:00.791Z,94089.88
2024-02-08T00:43:07.676Z,94093.31
2024-02-08T00:45:12.545Z,94092.13
2024-02-08T00:47:14.399Z,94090.94
2024-02-08T00:49:17.822Z,94091.38
2024-02-08T00:51:21.932Z,94096.44
2024-02-08T00:53:24.018Z,94094.94
2024-02-08T00:55:27.683Z,94096.25
2024-02-08T00:57:34.307Z,94095.00
2024-02-08T00:59:39.114Z,94092.91
2024-02-08T01:01:42.329Z,94086.50
2024-02-08T01:03:44.658Z,94083.59
2024-02-08T01:05:52.717Z,94088.50
2024-02-08T01:07:54.606Z,94090.75
2024-02-08T01:09:56.435Z,94094.97
2024-02-08T01:11:59.253Z,94084.06
2024-02-08T01:14:03.261Z,94082.13
2024-02-08T01:16:05.351Z,94082.13
2024-02-08T01:18:07.465Z,94085.66
2024-02-08T01:20:09.820Z,94093.31
2024-02-08T01:22:21.278Z,94086.59
2024-02-08T01:24:24.221Z,94087.78
2024-02-08T01:26:26.083Z,94083.06
2024-02-08T01:28:28.506Z,94080.97
2024-02-08T01:30:30.422Z,94080.38
2024-02-08T01:32:32.254Z,94092.31
2024-02-08T01:34:34.457Z,94088.19
2024-02-08T01:36:41.306Z,94090.91
2024-02-08T01:38:43.506Z,94090.72
2024-02-08T01:40:45.823Z,94077.63
2024-02-08T01:42:47.743Z,94073.66
2024-02-08T01:44:56.471Z,94076.63
2024-02-08T01:46:58.392Z,94070.25
2024-02-08T01:49:00.238Z,94066.69
2024-02-08T01:51:05.888Z,94059.34
2024-02-08T01:53:15.226Z,94066.56
2024-02-08T01:55:17.919Z,94062.72
2024-02-08T01:57:19.847Z,94056.56
2024-02-08T01:59:21.629Z,94065.34
2024-02-08T02:01:23.915Z,94065.16
2024-02-08T02:03:25.839Z,94056.47
2024-02-08T02:05:28.889Z,94055.84
2024-02-08T02:07:31.319Z,94053.22
2024-02-08T02:09:33.600Z,94054.03
2024-02-08T02:11:47.851Z,94061.06
2024-02-08T02:13:49.521Z,94060.34
2024-02-08T02:15:52.776Z,94057.72
2024-02-08T02:17:55.688Z,94056.47
2024-02-08T02:20:07.364Z,94054.13
2024-02-08T02:22:11.886Z,94052.00
2024-02-08T02:24:13.778Z,94058.88
2024-02-08T02:26:16.292Z,94058.66
2024-02-08T02:28:18.736Z,94054.25
2024-02-08T02:30:21.261Z,94063.38
2024-02-08T02:32:23.342Z,94059.94
2024-02-08T02:34:26.928Z,94058.50
2024-02-08T02:36:29.461Z,94059.66
2024-02-08T02:38:33.140Z,94056.88
2024-02-08T02:40:35.473Z,94066.34
2024-02-08T02:42:37.423Z,94057.34
2024-02-08T02:44:39.190Z,94051.81
2024-02-08T02:46:41.168Z,94050.22
2024-02-08T02:48:43.310Z,94052.34
2024-02-08T02:50:45.823Z,94058.75
2024-02-08T02:52:47.737Z,94049.41
2024-02-08T02:54:49.508Z,94047.44
2024-02-08T02:56:51.901Z,94057.75
2024-02-08T02:58:53.728Z,94048.28
2024-02-08T03:01:08.595Z,94047.91
2024-02-08T03:03:14.358Z,94050.25
2024-02-08T03:05:19.159Z,94049.44
2024-02-08T03:07:22.206Z,94046.50
2024-02-08T03:09:29.688Z,94049.31
2024-02-08T03:11:33.705Z,94056.97
2024-02-08T03:13:36.262Z,94059.06
2024-02-08T03:15:38.381Z,94060.38
2024-02-08T03:17:40.496Z,94057.25
2024-02-08T03:19:42.291Z,94051.75
2024-02-08T03:21:46.348Z,94055.38
2024-02-08T03:23:49.326Z,94053.75
2024-02-08T03:25:51.354Z,94050.66
2024-02-08T03:27:53.713Z,94039.38
2024-02-08T03:29:55.699Z,94037.09
2024-02-08T03:31:57.545Z,94035.47
2024-02-08T03:34:00.475Z,94035.09
2024-02-08T03:36:08.368Z,94032.75
2024-02-08T03:38:10.328Z,94037.47
2024-02-08T03:40:12.364Z,94027.91
2024-02-08T03:42:17.971Z,94036.78
2024-02-08T03:44:22.983Z,94045.94
2024-02-08T03:46:28.343Z,94036.94
2024-02-08T03:48:30.448Z,94032.50
2024-02-08T03:50:36.254Z,94035.91
2024-02-08T03:52:38.835Z,94034.59
2024-02-08T03:54:42.176Z,94040.66
2024-02-08T03:56:47.183Z,94035.91
2024-02-08T03:58:49.153Z,94046.75
2024-02-08T04:00:55.450Z,94052.63
2024-02-08T04:02:58.789Z,94048.22
2024-02-08T04:05:21.568Z,94041.38
2024-02-08T04:07:24.446Z,94036.66
2024-02-08T04:09:35.597Z,94038.44
2024-02-08T04:11:55.860Z,94042.22
2024-02-08T04:14:16.548Z,94049.97
2024-02-08T04:16:36.973Z,94050.81
2024-02-08T04:18:57.562Z,94042.50
2024-02-08T04:21:18.447Z,94047.09
2024-02-08T04:23:38.721Z,94046.63
2024-02-08T04:25:59.520Z,94046.50
2024-02-08T04:28:20.137Z,94046.38
2024-02-08T04:30:40.516Z,94048.19
2024-02-08T04:33:00.798Z,94044.63
2024-02-08T04:35:21.180Z,94049.56
2024-02-08T04:37:41.919Z,94056.56
2024-02-08T04:40:02.566Z,94060.31
2024-02-08T04:42:22.986Z,94039.59
2024-02-08T04:44:54.269Z,94053.78
2024-02-08T04:47:14.677Z,94045.47
2024-02-08T04:49:34.916Z,94054.75
2024-02-08T04:52:14.388Z,94049.06
2024-02-08T04:54:18.391Z,94056.09
2024-02-08T04:56:20.283Z,94052.16
2024-02-08T04:58:46.906Z,94062.25
2024-02-08T05:00:46.814Z,94042.19
2024-02-08T05:02:50.738Z,94063.72
2024-02-08T05:04:52.829Z,94043.63
2024-02-08T05:06:57.731Z,94046.75
2024-02-08T05:09:01.016Z,94049.69
2024-02-08T05:11:04.916Z,94054.97
2024-02-08T05:13:06.883Z,94052.06
2024-02-08T05:15:15.194Z,94061.06
2024-02-08T05:17:16.995Z,94062.09
2024-02-08T05:19:19.045Z,94060.28
2024-02-08T05:21:21.180Z,94046.38
2024-02-08T05:23:25.241Z,94055.03
2024-02-08T05:25:28.772Z,94058.78
2024-02-08T05:27:32.428Z,94067.56
2024-02-08T05:29:34.836Z,94067.69
2024-02-08T05:31:41.162Z,94065.03
2024-02-08T05:33:43.142Z,94073.16
2024-02-08T05:35:45.723Z,94072.78
2024-02-08T05:37:50.532Z,94073.78
2024-02-08T05:39:52.756Z,94081.34
2024-02-08T05:41:57.509Z,94084.00
2024-02-08T05:44:06.578Z,94075.44
2024-02-08T05:46:10.819Z,94101.69
2024-02-08T05:48:15.209Z,94091.81
2024-02-08T05:50:23.323Z,94085.78
2024-02-08T05:52:31.835Z,94085.31
2024-02-08T05:54:38.664Z,94087.00
2024-02-08T05:56:41.550Z,94092.31
2024-02-08T05:58:45.853Z,94096.75
2024-02-08T06:00:54.450Z,94093.25
2024-02-08T06:02:58.283Z,94092.59
2024-02-08T06:05:11.179Z,94099.97
2024-02-08T06:07:15.206Z,94091.00
2024-02-08T06:09:43.454Z,94090.63
2024-02-08T06:11:46.312Z,94086.13
2024-02-08T06:14:17.023Z,94089.25
2024-02-08T06:16:27.930Z,94096.06
2024-02-08T06:18:32.301Z,94097.63
2024-02-08T06:20:45.225Z,94113.44
2024-02-08T06:22:49.477Z,94109.84
2024-02-08T06:24:51.947Z,94111.94
2024-02-08T06:27:00.299Z,94105.41
2024-02-08T06:29:07.072Z,94100.44
2024-02-08T06:31:09.466Z,94113.72
2024-02-08T06:33:26.277Z,94109.38
2024-02-08T06:35:37.018Z,94122.34
2024-02-08T06:37:46.082Z,94125.06
2024-02-08T06:39:57.627Z,94118.88
2024-02-08T06:42:29.048Z,94117.75
2024-02-08T06:44:37.365Z,94121.13
2024-02-08T06:46:49.753Z,94123.63
2024-02-08T06:49:11.853Z,94127.28
2024-02-08T06:51:32.429Z,94120.22
2024-02-08T06:53:52.711Z,94124.00
2024-02-08T06:56:13.008Z,94124.31
2024-02-08T06:58:33.384Z,94126.56
2024-02-08T07:00:53.802Z,94132.47
2024-02-08T07:03:14.435Z,94132.09
2024-02-08T07:05:35.641Z,94133.56
2024-02-08T07:07:56.970Z,94133.56
2024-02-08T07:10:18.320Z,94126.81
2024-02-08T07:12:39.744Z,94126.31
2024-02-08T07:15:17.244Z,94133.31
2024-02-08T07:17:37.598Z,94126.88
2024-02-08T07:19:58.530Z,94121.38
2024-02-08T07:22:18.904Z,94120.34
2024-02-08T07:24:39.481Z,94117.81
2024-02-08T07:26:59.924Z,94115.41
2024-02-08T07:29:21.039Z,94110.16
2024-02-08T07:31:41.984Z,94096.38
2024-02-08T07:34:02.531Z,94097.53
2024-02-08T07:36:23.339Z,94082.88
2024-02-08T07:38:45.233Z,94085.47
2024-02-08T07:40:48.342Z,94080.31
2024-02-08T07:43:17.936Z,94082.88
2024-02-08T07:45:28.376Z,94086.59
2024-02-08T07:47:30.387Z,94087.72
2024-02-08T07:49:45.447Z,94084.59
2024-02-08T07:51:51.999Z,94086.84
2024-02-08T07:53:55.482Z,94099.53
2024-02-08T07:56:20.429Z,94094.31
2024-02-08T07:58:22.251Z,94094.19
2024-02-08T08:00:43.608Z,94095.41
2024-02-08T08:02:49.137Z,94090.84
2024-02-08T08:04:54.696Z,94093.22
2024-02-08T08:07:01.665Z,94094.06
2024-02-08T08:09:20.358Z,94101.31
2024-02-08T08:11:27.053Z,94094.97
2024-02-08T08:13:51.786Z,94101.50
2024-02-08T08:16:14.391Z,94097.00
2024-02-08T08:18:25.393Z,94102.22
2024-02-08T08:20:46.418Z,94098.53
2024-02-08T08:23:01.499Z,94095.00
2024-02-08T08:25:13.012Z,94087.34
2024-02-08T08:27:29.036Z,94097.75
2024-02-08T08:29:44.065Z,94097.50
2024-02-08T08:31:54.723Z,94096.06
2024-02-08T08:34:22.234Z,94096.94
2024-02-08T08:36:30.433Z,94092.75
2024-02-08T08:38:34.791Z,94087.31
2024-02-08T08:40:41.070Z,94094.56
2024-02-08T08:42:51.701Z,94084.28
2024-02-08T08:44:58.741Z,94082.78
2024-02-08T08:47:02.485Z,94075.53
2024-02-08T08:49:05.885Z,94078.81
2024-02-08T08:51:14.374Z,94074.69
2024-02-08T08:53:21.037Z,94075.16
2024-02-08T08:55:22.957Z,94080.38
2024-02-08T08:57:26.770Z,94074.88
2024-02-08T08:59:30.599Z,94078.81
2024-02-08T09:01:37.784Z,94074.66
2024-02-08T09:03:41.167Z,94076.50
2024-02-08T09:05:45.076Z,94073.47
2024-02-08T09:07:47.569Z,94077.31
2024-02-08T09:10:05.600Z,94073.50
2024-02-08T09:12:09.238Z,94073.03
2024-02-08T09:14:11.725Z,94066.38
2024-02-08T09:16:26.422Z,94070.84
2024-02-08T09:18:47.432Z,94077.97
2024-02-08T09:20:49.668Z,94070.34
2024-02-08T09:22:53.844Z,94066.97
2024-02-08T09:24:57.533Z,94064.63
2024-02-08T09:27:18.057Z,94069.78
2024-02-08T09:29:30.283Z,94070.00
2024-02-08T09:31:40.571Z,94064.91
2024-02-08T09:33:49.288Z,94066.31
2024-02-08T09:35:51.331Z,94069.47
2024-02-08T09:37:53.326Z,94072.47
2024-02-08T09:39:59.915Z,94067.94
2024-02-08T09:42:09.124Z,94066.13
2024-02-08T09:44:13.216Z,94062.16
2024-02-08T09:46:33.239Z,94055.53
2024-02-08T09:48:49.767Z,94053.56
2024-02-08T09:50:52.283Z,94061.59
2024-02-08T09:53:01.369Z,94054.63
2024-02-08T09:55:09.701Z,94046.69
2024-02-08T09:57:24.137Z,94051.56
2024-02-08T09:59:49.687Z,94051.72
2024-02-08T10:01:54.152Z,94049.34
2024-02-08T10:04:16.725Z,94046.56
2024-02-08T10:06:26.008Z,94039.50
2024-02-08T10:08:33.162Z,94035.69
2024-02-08T10:11:07.205Z,94036.50
2024-02-08T10:13:15.812Z,94029.41
2024-02-08T10:15:19.086Z,94029.41
2024-02-08T10:17:27.272Z,94025.34
2024-02-08T10:19:30.288Z,94021.72
2024-02-08T10:21:37.681Z,94028.03
2024-02-08T10:23:50.180Z,94019.06
2024-02-08T10:26:17.529Z,94016.63
2024-02-08T10:28:27.988Z,94010.75
2024-02-08T10:30:30.066Z,94010.75
2024-02-08T10:32:35.112Z,94011.13
2024-02-08T10:34:42.011Z,94007.84
2024-02-08T10:36:47.233Z,94009.94
2024-02-08T10:38:59.523Z,94007.25
2024-02-08T10:41:03.861Z,94001.19
2024-02-08T10:43:18.550Z,94000.44
2024-02-08T10:45:24.522Z,94002.66
2024-02-08T10:47:42.347Z,93993.75
2024-02-08T10:49:51.808Z,93986.44
2024-02-08T10:52:02.446Z,93983.59
2024-02-08T10:54:09.919Z,93981.34
2024-02-08T10:56:16.234Z,93979.09
2024-02-08T10:58:22.806Z,93979.91
2024-02-08T11:00:41.921Z,93981.31
2024-02-08T11:02:50.946Z,93973.03
2024-02-08T11:05:13.226Z,93970.63
2024-02-08T11:07:15.370Z,93973.44
2024-02-08T11:09:19.950Z,93964.50
2024-02-08T11:11:22.531Z,93961.50
2024-02-08T11:13:30.886Z,93953.97
2024-02-08T11:15:40.106Z,93960.88
2024-02-08T11:17:51.049Z,93956.16
2024-02-08T11:20:00.548Z,93950.69
2024-02-08T11:22:26.281Z,93948.97
2024-02-08T11:24:39.960Z,93948.53
2024-02-08T11:26:56.280Z,93941.03
2024-02-08T11:29:06.507Z,93939.91
2024-02-08T11:31:18.833Z,93933.31
2024-02-08T11:33:34.690Z,93935.19
2024-02-08T11:35:46.524Z,93928.78
2024-02-08T11:37:49.209Z,93926.41
2024-02-08T11:40:02.224Z,93927.69
2024-02-08T11:42:17.469Z,93925.22
2024-02-08T11:44:30.179Z,93923.44
2024-02-08T11:46:39.760Z,93913.31
2024-02-08T11:48:43.182Z,93917.38
2024-02-08T11:50:48.482Z,93923.44
2024-02-08T11:52:59.962Z,93915.75
2024-02-08T11:55:07.494Z,93914.56
2024-02-08T11:57:17.754Z,93897.78
2024-02-08T11:59:21.626Z,93905.34
2024-02-08T12:01:27.021Z,93899.88
2024-02-08T12:03:29.544Z,93897.47
2024-02-08T12:05:32.121Z,93903.94
2024-02-08T12:07:34.192Z,93898.38
2024-02-08T12:09:36.106Z,93894.13
2024-02-08T12:11:38.173Z,93893.13
2024-02-08T12:13:41.157Z,93894.31
2024-02-08T12:15:57.436Z,93890.38
2024-02-08T12:18:07.586Z,93887.16
2024-02-08T12:20:13.853Z,93893.63
2024-02-08T12:22:16.585Z,93882.31
2024-02-08T12:24:18.702Z,93876.94
2024-02-08T12:26:23.800Z,93878.22
2024-02-08T12:28:26.341Z,93870.88
2024-02-08T12:30:30.456Z,93874.66
2024-02-08T12:32:34.885Z,93868.53
2024-02-08T12:34:37.025Z,93865.44
2024-02-08T12:36:39.069Z,93859.69
2024-02-08T12:38:41.453Z,93856.84
2024-02-08T12:40:45.434Z,93858.34
2024-02-08T12:42:48.355Z,93854.53
2024-02-08T12:44:52.061Z,93857.63
2024-02-08T12:46:54.433Z,93854.03
2024-02-08T12:48:56.844Z,93844.25
2024-02-08T12:51:04.827Z,93846.03
2024-02-08T12:53:07.383Z,93841.47
2024-02-08T12:55:10.654Z,93839.47
2024-02-08T12:57:13.953Z,93834.69
2024-02-08T12:59:20.073Z,93831.13
2024-02-08T13:01:22.508Z,93826.75
2024-02-08T13:03:28.120Z,93819.44
2024-02-08T13:05:40.041Z,93817.69
2024-02-08T13:07:44.916Z,93829.22
2024-02-08T13:09:47.765Z,93817.69
2024-02-08T13:11:50.278Z,93821.81
2024-02-08T13:13:52.070Z,93839.09
2024-02-08T13:16:00.885Z,93819.81
2024-02-08T13:18:03.537Z,93818.09
2024-02-08T13:20:14.013Z,93819.75
2024-02-08T13:22:17.499Z,93818.41
2024-02-08T13:24:19.624Z,93822.09
2024-02-08T13:26:29.684Z,93823.94
2024-02-08T13:28:34.758Z,93819.75
2024-02-08T13:30:38.134Z,93822.97
2024-02-08T13:32:40.112Z,93812.91
2024-02-08T13:34:42.235Z,93815.25
2024-02-08T13:36:45.365Z,93807.56
2024-02-08T13:38:51.242Z,93812.22
2024-02-08T13:41:00.871Z,93798.97
2024-02-08T13:43:03.405Z,93809.03
2024-02-08T13:45:06.640Z,93795.22
2024-02-08T13:47:14.480Z,93808.47
2024-02-08T13:49:23.014Z,93811.88
2024-02-08T13:51:25.224Z,93816.88
2024-02-08T13:53:29.826Z,93817.63
2024-02-08T13:55:46.222Z,93822.66
2024-02-08T13:57:55.226Z,93817.28
2024-02-08T14:00:04.963Z,93817.06
2024-02-08T14:02:07.325Z,93815.16
2024-02-08T14:04:09.284Z,93814.66
2024-02-08T14:06:11.883Z,93814.06
2024-02-08T14:08:19.290Z,93809.94
2024-02-08T14:10:33.511Z,93805.22
2024-02-08T14:12:35.484Z,93812.75
2024-02-08T14:14:45.034Z,93807.38
2024-02-08T14:16:53.422Z,93799.09
2024-02-08T14:18:56.182Z,93807.78
2024-02-08T14:21:02.755Z,93803.75
2024-02-08T14:23:05.492Z,93815.22
2024-02-08T14:25:25.177Z,93807.69
2024-02-08T14:27:29.815Z,93812.50
2024-02-08T14:29:34.610Z,93807.78
2024-02-08T14:31:39.139Z,93811.63
2024-02-08T14:33:43.123Z,93806.59
2024-02-08T14:35:48.394Z,93803.41
2024-02-08T14:37:51.521Z,93803.28
2024-02-08T14:39:54.517Z,93806.13
2024-02-08T14:41:57.249Z,93807.97
2024-02-08T14:44:08.064Z,93807.56
2024-02-08T14:46:10.495Z,93814.09
2024-02-08T14:48:12.440Z,93815.50
2024-02-08T14:50:32.766Z,93812.25
2024-02-08T14:52:45.717Z,93815.19
2024-02-08T14:54:47.838Z,93815.59
2024-02-08T14:57:05.972Z,93823.72
2024-02-08T14:59:08.677Z,93828.59
2024-02-08T15:01:10.941Z,93821.81
2024-02-08T15:03:23.530Z,93828.31
2024-02-08T15:05:41.949Z,93831.78
2024-02-08T15:07:52.701Z,93823.63
2024-02-08T15:09:58.557Z,93830.47
2024-02-08T15:12:13.155Z,93832.59
2024-02-08T15:14:20.045Z,93832.78
2024-02-08T15:16:32.222Z,93831.00
2024-02-08T15:18:40.745Z,93825.78
2024-02-08T15:20:48.355Z,93830.28
2024-02-08T15:23:11.324Z,93829.59
2024-02-08T15:25:18.253Z,93832.25
2024-02-08T15:27:20.189Z,93844.28
2024-02-08T15:29:40.420Z,93836.13
2024-02-08T15:31:57.465Z,93842.63
2024-02-08T15:34:09.820Z,93842.00
2024-02-08T15:36:12.150Z,93837.38
2024-02-08T15:38:23.459Z,93842.72
2024-02-08T15:40:26.250Z,93846.00
2024-02-08T15:42:33.848Z,93849.09
2024-02-08T15:44:38.178Z,93850.53
2024-02-08T15:46:42.872Z,93848.78
2024-02-08T15:48:46.424Z,93845.97
2024-02-08T15:50:48.491Z,93851.94
2024-02-08T15:52:54.628Z,93856.03
2024-02-08T15:54:57.007Z,93862.53
2024-02-08T15:56:59.225Z,93867.41
2024-02-08T15:59:04.744Z,93869.66
2024-02-08T16:01:09.481Z,93867.28
2024-02-08T16:03:19.734Z,93857.31
2024-02-08T16:05:23.559Z,93867.25
2024-02-08T16:07:33.885Z,93871.09
2024-02-08T16:09:36.516Z,93871.69
2024-02-08T16:11:38.314Z,93874.34
2024-02-08T16:13:54.264Z,93871.16
2024-02-08T16:15:59.012Z,93878.13
2024-02-08T16:18:04.772Z,93884.22
2024-02-08T16:20:16.891Z,93882.63
2024-02-08T16:22:25.743Z,93883.38
2024-02-08T16:24:32.177Z,93891.91
2024-02-08T16:26:36.485Z,93893.75
2024-02-08T16:28:42.335Z,93893.75
2024-02-08T16:31:06.534Z,93896.78
2024-02-08T16:33:12.147Z,93889.28
2024-02-08T16:35:32.857Z,93893.53
2024-02-08T16:37:44.634Z,93895.38
2024-02-08T16:40:06.460Z,93906.72
2024-02-08T16:42:19.534Z,93902.25
2024-02-08T16:44:39.621Z,93901.66
2024-02-08T16:46:42.345Z,93906.53
2024-02-08T16:48:48.685Z,93906.94
2024-02-08T16:51:00.802Z,93912.59
2024-02-08T16:53:05.431Z,93913.00
2024-02-08T16:55:14.877Z,93905.50
2024-02-08T16:57:19.981Z,93910.78
2024-02-08T16:59:36.575Z,93910.56
2024-02-08T17:01:54.203Z,93911.97
2024-02-08T17:04:03.823Z,93901.22
2024-02-08T17:06:18.107Z,93908.13
2024-02-08T17:08:23.928Z,93901.84
2024-02-08T17:10:38.087Z,93912.56
2024-02-08T17:12:47.066Z,93906.91
2024-02-08T17:14:50.777Z,93923.34
2024-02-08T17:17:14.964Z,93920.13
2024-02-08T17:19:25.814Z,93926.00
2024-02-08T17:21:46.382Z,93920.31
2024-02-08T17:24:03.753Z,93926.81
2024-02-08T17:26:16.681Z,93931.66
2024-02-08T17:28:32.942Z,93934.50
2024-02-08T17:30:55.223Z,93934.91
2024-02-08T17:33:02.429Z,93943.22
2024-02-08T17:35:05.013Z,93935.72
2024-02-08T17:37:07.526Z,93933.06
2024-02-08T17:39:12.491Z,93933.69
2024-02-08T17:41:15.578Z,93936.75
2024-02-08T17:43:18.966Z,93931.66
2024-02-08T17:45:21.531Z,93936.75
2024-02-08T17:47:33.006Z,93934.91
2024-02-08T17:49:38.902Z,93934.50
2024-02-08T17:51:41.036Z,93936.72
2024-02-08T17:53:46.214Z,93934.66
2024-02-08T17:55:52.391Z,93947.44
2024-02-08T17:57:57.553Z,93942.97
2024-02-08T18:00:02.867Z,93945.81
2024-02-08T18:02:07.916Z,93945.38
2024-02-08T18:04:18.331Z,93950.03
2024-02-08T18:06:25.468Z,93950.25
2024-02-08T18:08:27.815Z,93951.69
2024-02-08T18:10:45.001Z,93952.47
2024-02-08T18:12:53.492Z,93946.41
2024-02-08T18:15:12.334Z,93949.84
2024-02-08T18:17:20.377Z,93949.84
2024-02-08T18:19:33.682Z,93941.13
2024-02-08T18:21:35.812Z,93940.09
2024-02-08T18:23:37.736Z,93942.34
2024-02-08T18:25:46.753Z,93939.91
2024-02-08T18:27:49.297Z,93935.63
2024-02-08T18:29:52.448Z,93938.84
2024-02-08T18:31:54.554Z,93938.84
2024-02-08T18:33:58.580Z,93935.59
2024-02-08T18:36:06.126Z,93922.59
2024-02-08T18:38:13.497Z,93929.06
2024-02-08T18:40:25.597Z,93926.59
2024-02-08T18:42:28.837Z,93938.78
2024-02-08T18:44:34.107Z,93933.09
2024-02-08T18:46:37.040Z,93932.72
2024-02-08T18:48:44.216Z,93930.28
2024-02-08T18:50:50.487Z,93939.38
2024-02-08T18:52:53.872Z,93936.53
2024-02-08T18:54:56.358Z,93937.13
2024-02-08T18:57:04.916Z,93940.00
2024-02-08T18:59:06.884Z,93941.38
2024-02-08T19:01:14.376Z,93948.41
2024-02-08T19:03:17.355Z,93956.50
2024-02-08T19:05:19.692Z,93956.03
2024-02-08T19:07:22.980Z,93957.47
2024-02-08T19:09:27.918Z,93959.66
2024-02-08T19:11:29.814Z,93952.59
2024-02-08T19:13:33.597Z,93951.38
2024-02-08T19:15:35.943Z,93957.00
2024-02-08T19:17:45.269Z,93958.44
2024-02-08T19:19:50.582Z,93956.63
2024-02-08T19:21:54.858Z,93955.69
2024-02-08T19:23:58.556Z,93959.94
2024-02-08T19:26:00.293Z,93960.03
2024-02-08T19:28:05.896Z,93958.97
2024-02-08T19:30:09.582Z,93966.69
2024-02-08T19:32:20.593Z,93961.03
2024-02-08T19:34:23.306Z,93952.75
2024-02-08T19:36:25.533Z,93952.00
2024-02-08T19:38:27.742Z,93956.50
2024-02-08T19:40:31.130Z,93956.97
2024-02-08T19:42:33.172Z,93959.69
2024-02-08T19:44:38.164Z,93965.91
2024-02-08T19:46:49.951Z,93967.19
2024-02-08T19:49:03.035Z,93975.84
2024-02-08T19:51:10.550Z,93968.56
2024-02-08T19:53:16.142Z,93965.75
2024-02-08T19:55:30.918Z,93965.75
2024-02-08T19:57:40.655Z,93974.31
2024-02-08T19:59:43.922Z,93967.97
2024-02-08T20:01:49.273Z,93973.63
2024-02-08T20:03:54.845Z,93965.63
2024-02-08T20:05:56.936Z,93974.44
2024-02-08T20:07:59.050Z,93975.25
2024-02-08T20:10:03.074Z,93976.31
2024-02-08T20:12:06.126Z,93972.72
2024-02-08T20:14:07.913Z,93972.78
2024-02-08T20:16:11.255Z,93967.28
2024-02-08T20:18:18.808Z,93969.72
2024-02-08T20:20:23.178Z,93966.28
2024-02-08T20:22:28.379Z,93965.41
2024-02-08T20:24:31.204Z,93965.47
2024-02-08T20:26:32.914Z,93976.50
2024-02-08T20:28:35.775Z,93974.84
2024-02-08T20:30:40.059Z,93980.84
2024-02-08T20:32:42.619Z,93979.00
2024-02-08T20:34:45.621Z,93980.34
2024-02-08T20:36:51.950Z,93985.19
2024-02-08T20:38:57.197Z,93982.59
2024-02-08T20:40:59.065Z,93984.97
2024-02-08T20:43:01.968Z,93985.28
2024-02-08T20:45:11.354Z,93992.16
2024-02-08T20:47:13.479Z,93990.25
2024-02-08T20:49:17.402Z,93991.41
2024-02-08T20:51:21.409Z,93994.88
2024-02-08T20:53:23.177Z,93991.78
2024-02-08T20:55:36.607Z,93995.22
2024-02-08T20:57:41.323Z,93997.25
2024-02-08T20:59:47.803Z,93997.91
2024-02-08T21:01:49.625Z,93999.94
2024-02-08T21:03:57.364Z,93995.50
2024-02-08T21:05:59.934Z,94002.66
2024-02-08T21:08:01.995Z,94007.28
2024-02-08T21:10:04.742Z,94006.03
2024-02-08T21:12:07.144Z,94004.56
2024-02-08T21:14:09.049Z,94009.38
2024-02-08T21:16:11.463Z,94000.06
2024-02-08T21:18:20.187Z,94003.44
2024-02-08T21:20:22.482Z,94001.22
2024-02-08T21:22:24.507Z,94000.13
2024-02-08T21:24:28.528Z,94005.13
2024-02-08T21:26:32.565Z,94004.03
2024-02-08T21:28:35.442Z,94003.84
2024-02-08T21:30:42.904Z,93994.25
2024-02-08T21:32:49.331Z,94004.38
2024-02-08T21:34:51.603Z,93996.16
2024-02-08T21:36:53.928Z,94003.50
2024-02-08T21:38:56.069Z,94010.19
2024-02-08T21:40:58.856Z,94006.50
2024-02-08T21:43:00.765Z,94015.41
2024-02-08T21:45:03.517Z,94013.97
2024-02-08T21:47:08.423Z,94007.66
2024-02-08T21:49:11.494Z,94011.97
2024-02-08T21:51:14.042Z,94017.75
2024-02-08T21:53:16.884Z,94015.41
2024-02-08T21:55:19.303Z,94010.31
2024-02-08T21:57:21.100Z,94010.34
2024-02-08T21:59:22.881Z,94016.75
2024-02-08T22:01:37.008Z,94004.31
2024-02-08T22:03:39.515Z,94007.50
2024-02-08T22:05:45.722Z,94009.03
2024-02-08T22:07:50.995Z,93998.03
2024-02-08T22:09:54.321Z,93991.88
2024-02-08T22:11:57.567Z,93997.50
2024-02-08T22:14:01.233Z,93995.44
2024-02-08T22:16:03.050Z,93980.44
2024-02-08T22:18:05.703Z,93979.16
2024-02-08T22:20:13.518Z,93978.69
2024-02-08T22:22:16.687Z,93981.38
2024-02-08T22:24:19.332Z,93980.31
2024-02-08T22:26:21.081Z,93985.91
2024-02-08T22:28:23.160Z,93980.97
2024-02-08T22:30:25.436Z,93979.03
2024-02-08T22:32:27.170Z,93978.13
2024-02-08T22:34:28.980Z,93968.81
2024-02-08T22:36:37.608Z,93966.59
2024-02-08T22:38:39.330Z,93967.88
2024-02-08T22:40:41.310Z,93969.13
2024-02-08T22:42:44.196Z,93969.56
2024-02-08T22:44:46.025Z,93969.94
2024-02-08T22:46:50.567Z,93961.06
2024-02-08T22:48:52.444Z,93955.94
2024-02-08T22:50:54.195Z,93965.44
2024-02-08T22:52:57.709Z,93973.56
2024-02-08T22:54:59.741Z,93969.41
2024-02-08T22:57:01.499Z,93973.94
2024-02-08T22:59:06.281Z,93971.56
2024-02-08T23:01:26.250Z,93983.41
2024-02-08T23:03:28.713Z,93980.22
2024-02-08T23:05:32.134Z,93977.03
2024-02-08T23:07:34.183Z,93971.16
2024-02-08T23:09:36.281Z,93967.91
2024-02-08T23:11:38.263Z,93962.50
2024-02-08T23:13:40.101Z,93962.19
2024-02-08T23:15:46.810Z,93958.81
2024-02-08T23:17:56.837Z,93959.00
2024-02-08T23:19:59.958Z,93959.63
2024-02-08T23:22:05.950Z,93958.34
2024-02-08T23:24:11.601Z,93958.09
2024-02-08T23:26:13.467Z,93961.94
2024-02-08T23:28:15.263Z,93962.22
2024-02-08T23:30:25.799Z,93960.59
2024-02-08T23:32:27.722Z,93964.38
2024-02-08T23:34:30.321Z,93965.81
2024-02-08T23:36:34.575Z,93964.13
2024-02-08T23:38:36.773Z,93958.03
2024-02-08T23:40:40.566Z,93954.75
2024-02-08T23:42:43.549Z,93958.66
2024-02-08T23:44:45.364Z,93959.25
2024-02-08T23:46:47.086Z,93957.81
2024-02-08T23:48:52.810Z,93963.50
2024-02-08T23:50:54.974Z,93956.13
2024-02-08T23:53:02.150Z,93951.22
2024-02-08T23:55:07.924Z,93957.72
2024-02-08T23:57:14.129Z,93953.91
2024-02-08T23:59:15.837Z,93951.41
